Time;durP1;ratioP1;P1;durP2;ratioP2;P2;SDS_P1;SDS_P2;PMS_P1;PMS_P2;Temp;Humidity;BMP_temperature;BMP_pressure;BME280_temperature;BME280_humidity;BME280_pressure;Samples;Min_cycle;Max_cycle;Signal;HPM_P1;HPM_P2
2022/03/27 00:01:30;;;;;;;9.80;7.80;;;12.60;55.40;;;;;;5114680;28;20291;-85
2022/03/27 00:03:58;;;;;;;11.70;7.47;;;12.60;55.60;;;;;;5115327;28;20253;-85
2022/03/27 00:06:28;;;;;;;13.32;8.25;;;12.60;56.30;;;;;;5114895;28;20253;-85
2022/03/27 00:08:57;;;;;;;15.35;7.57;;;12.50;56.30;;;;;;5114781;28;20238;-85
2022/03/27 00:11:26;;;;;;;11.85;8.13;;;12.50;56.30;;;;;;5114892;28;20251;-85
2022/03/27 00:13:56;;;;;;;10.60;7.40;;;12.60;56.90;;;;;;5114959;28;20212;-85
2022/03/27 00:16:24;;;;;;;9.00;7.22;;;12.60;56.90;;;;;;5114736;28;20237;-85
2022/03/27 00:18:53;;;;;;;14.00;9.05;;;12.50;57.00;;;;;;5115061;28;20214;-85
2022/03/27 00:21:22;;;;;;;12.20;9.02;;;12.50;57.10;;;;;;5114258;28;20253;-85
2022/03/27 00:23:53;;;;;;;10.18;7.53;;;12.50;57.30;;;;;;5114714;28;20212;-86
2022/03/27 00:26:22;;;;;;;9.82;7.88;;;12.50;57.60;;;;;;5114777;28;20207;-86
2022/03/27 00:28:51;;;;;;;8.48;7.55;;;12.50;57.70;;;;;;5114658;28;20299;-85
2022/03/27 00:31:20;;;;;;;7.82;6.60;;;12.50;57.70;;;;;;5114623;28;20246;-86
2022/03/27 00:33:48;;;;;;;7.13;6.45;;;12.50;57.60;;;;;;5114580;28;20196;-85
2022/03/27 00:36:17;;;;;;;8.55;7.45;;;12.40;58.40;;;;;;5114423;28;20207;-85
2022/03/27 00:38:46;;;;;;;9.85;7.70;;;12.40;58.40;;;;;;5114164;28;20199;-86
2022/03/27 00:41:17;;;;;;;7.55;6.85;;;12.40;59.30;;;;;;5113944;28;20228;-85
2022/03/27 00:43:46;;;;;;;10.00;7.25;;;12.40;58.80;;;;;;5114115;27;20204;-85
2022/03/27 00:46:14;;;;;;;10.30;7.95;;;12.40;59.10;;;;;;5114524;28;20208;-85
2022/03/27 00:48:42;;;;;;;8.00;7.15;;;12.40;60.00;;;;;;5114040;28;20229;-85
2022/03/27 00:51:11;;;;;;;9.82;8.27;;;12.40;59.90;;;;;;5113892;28;20220;-86
2022/03/27 00:53:39;;;;;;;6.97;6.32;;;12.40;60.00;;;;;;5114289;28;20204;-85
2022/03/27 00:56:07;;;;;;;10.00;8.00;;;12.40;60.20;;;;;;5114309;28;20223;-85
2022/03/27 00:58:37;;;;;;;13.02;8.18;;;12.40;60.70;;;;;;5114024;28;20208;-85
2022/03/27 01:01:15;;;;;;;8.20;7.20;;;12.50;60.50;;;;;;5113870;28;20255;-85
2022/03/27 01:03:47;;;;;;;11.40;8.07;;;12.50;60.50;;;;;;5113511;28;20229;-85
2022/03/27 01:06:34;;;;;;;12.85;9.75;;;12.50;59.50;;;;;;5113763;28;20234;-85
2022/03/27 01:11:55;;;;;;;16.58;10.25;;;12.40;57.50;;;;;;5113453;28;20307;-84
2022/03/27 01:14:32;;;;;;;12.52;10.43;;;12.30;57.40;;;;;;5114146;28;20230;-85
2022/03/27 01:17:02;;;;;;;15.90;11.52;;;12.20;57.90;;;;;;5114011;28;20203;-85
2022/03/27 01:19:31;;;;;;;13.70;11.43;;;12.20;57.40;;;;;;5114134;28;20244;-85
2022/03/27 01:22:02;;;;;;;15.15;11.38;;;12.10;57.60;;;;;;5113364;28;20251;-85
2022/03/27 01:24:31;;;;;;;14.60;11.23;;;12.00;57.70;;;;;;5114000;28;20215;-85
2022/03/27 01:26:59;;;;;;;13.02;10.82;;;12.00;57.80;;;;;;5114222;28;20234;-85
2022/03/27 01:29:28;;;;;;;13.88;11.80;;;12.00;57.80;;;;;;5113825;28;20257;-85
2022/03/27 01:31:56;;;;;;;17.15;11.35;;;11.90;57.80;;;;;;5113703;28;20272;-85
2022/03/27 01:34:25;;;;;;;16.60;12.02;;;11.90;58.10;;;;;;5113575;28;20203;-84
2022/03/27 01:36:54;;;;;;;13.38;11.50;;;11.90;58.30;;;;;;5113639;28;20253;-84
2022/03/27 01:39:23;;;;;;;14.45;12.32;;;11.80;58.30;;;;;;5113621;28;20247;-85
2022/03/27 01:41:51;;;;;;;26.55;13.27;;;11.80;58.30;;;;;;5113084;28;20319;-85
2022/03/27 01:44:20;;;;;;;13.80;12.40;;;11.80;57.70;;;;;;5113254;28;20295;-85
2022/03/27 01:46:49;;;;;;;15.10;12.65;;;11.80;57.60;;;;;;5113314;28;20204;-85
2022/03/27 01:49:19;;;;;;;16.63;13.00;;;11.80;57.50;;;;;;5113544;28;20208;-85
2022/03/27 01:51:47;;;;;;;13.52;12.10;;;11.70;57.40;;;;;;5113272;28;20231;-85
2022/03/27 01:54:15;;;;;;;16.80;12.95;;;11.70;57.50;;;;;;5112725;27;20230;-85
2022/03/27 01:56:45;;;;;;;21.08;13.25;;;11.70;57.70;;;;;;5113076;28;20235;-85
2022/03/27 01:59:14;;;;;;;17.25;12.93;;;11.70;57.90;;;;;;5113321;28;20377;-85
2022/03/27 02:01:42;;;;;;;17.95;14.55;;;11.70;58.00;;;;;;5113098;28;20303;-85
2022/03/27 02:04:11;;;;;;;21.95;13.73;;;11.60;58.40;;;;;;5113013;28;20254;-85
2022/03/27 02:06:39;;;;;;;19.83;14.05;;;11.60;59.00;;;;;;5113420;28;20246;-85
2022/03/27 02:09:09;;;;;;;13.55;12.10;;;11.60;59.30;;;;;;5113217;28;20212;-85
2022/03/27 02:11:38;;;;;;;17.30;13.73;;;11.50;59.20;;;;;;5112761;28;20258;-85
2022/03/27 02:14:08;;;;;;;19.13;13.93;;;11.50;59.80;;;;;;5113314;28;20287;-85
2022/03/27 02:16:37;;;;;;;15.38;12.35;;;11.40;60.00;;;;;;5113114;28;20295;-84
2022/03/27 02:19:08;;;;;;;14.63;11.90;;;11.40;60.10;;;;;;5113375;28;20203;-85
2022/03/27 02:21:37;;;;;;;21.95;11.65;;;11.40;60.40;;;;;;5113035;28;20228;-85
2022/03/27 02:24:06;;;;;;;17.20;11.18;;;11.40;60.70;;;;;;5112551;28;20239;-86
2022/03/27 02:26:35;;;;;;;22.05;10.85;;;11.30;61.60;;;;;;5112847;28;20254;-85
2022/03/27 02:29:03;;;;;;;13.43;9.63;;;11.30;62.50;;;;;;5113259;28;20222;-86
2022/03/27 02:31:33;;;;;;;10.98;9.68;;;11.30;63.00;;;;;;5113033;28;20294;-84
2022/03/27 02:34:02;;;;;;;15.18;11.40;;;11.30;63.10;;;;;;5112744;28;20219;-86
2022/03/27 02:36:31;;;;;;;13.85;9.30;;;11.30;63.90;;;;;;5112874;28;20295;-86
2022/03/27 02:38:59;;;;;;;15.00;10.98;;;11.30;63.70;;;;;;5112660;28;20244;-86
2022/03/27 02:41:27;;;;;;;16.90;10.85;;;11.20;64.10;;;;;;5112658;28;20284;-85
2022/03/27 02:43:56;;;;;;;12.07;10.77;;;11.20;65.20;;;;;;5112648;28;20251;-85
2022/03/27 02:46:24;;;;;;;12.52;9.77;;;11.20;64.60;;;;;;5112829;28;20283;-85
2022/03/27 02:48:54;;;;;;;15.90;10.93;;;11.20;64.90;;;;;;5112670;28;20257;-86
2022/03/27 02:51:22;;;;;;;12.98;10.13;;;11.20;65.60;;;;;;5112362;28;20255;-85
2022/03/27 02:53:51;;;;;;;19.38;10.10;;;11.30;65.10;;;;;;5113185;28;20200;-85
2022/03/27 02:56:19;;;;;;;10.52;9.43;;;11.20;64.80;;;;;;5112122;28;20256;-85
2022/03/27 02:58:48;;;;;;;16.13;11.52;;;11.30;65.20;;;;;;5112428;28;20299;-85
2022/03/27 03:01:16;;;;;;;11.60;10.00;;;11.20;65.70;;;;;;5112191;28;20246;-86
2022/03/27 03:03:45;;;;;;;12.43;11.15;;;11.30;66.10;;;;;;5112507;28;20220;-85
2022/03/27 03:06:15;;;;;;;13.38;10.07;;;11.20;66.10;;;;;;5112720;28;20250;-86
2022/03/27 03:08:43;;;;;;;10.75;9.57;;;11.20;66.30;;;;;;5117636;28;20290;-85
2022/03/27 03:11:13;;;;;;;12.70;9.20;;;11.30;66.70;;;;;;5117565;28;20288;-85
2022/03/27 03:13:43;;;;;;;10.55;9.55;;;11.20;67.20;;;;;;5117164;28;20223;-85
2022/03/27 03:16:15;;;;;;;9.65;8.70;;;11.20;69.00;;;;;;5116407;27;20239;-85
2022/03/27 03:18:44;;;;;;;10.15;8.70;;;11.20;70.40;;;;;;5116149;28;20215;-85
2022/03/27 03:21:14;;;;;;;9.93;8.93;;;11.20;72.10;;;;;;5115757;28;20259;-85
2022/03/27 03:23:43;;;;;;;13.18;10.18;;;11.20;72.70;;;;;;5116061;28;20258;-85
2022/03/27 03:26:11;;;;;;;10.60;9.05;;;11.20;73.00;;;;;;5116548;28;20238;-86
2022/03/27 03:28:39;;;;;;;13.48;9.98;;;11.10;73.80;;;;;;5116758;28;20275;-86
2022/03/27 03:31:08;;;;;;;13.93;9.48;;;11.10;74.20;;;;;;5116551;28;20252;-85
2022/03/27 03:33:36;;;;;;;15.50;9.18;;;11.10;74.50;;;;;;5116199;28;20218;-85
2022/03/27 03:36:05;;;;;;;12.40;9.65;;;11.00;75.30;;;;;;5116055;28;20211;-85
2022/03/27 03:38:35;;;;;;;10.13;8.57;;;11.00;76.10;;;;;;5115699;28;20276;-85
2022/03/27 03:41:03;;;;;;;19.20;8.57;;;11.00;77.30;;;;;;5115777;28;20255;-85
2022/03/27 03:43:32;;;;;;;12.27;9.40;;;11.00;78.20;;;;;;5115740;28;20259;-85
2022/03/27 03:46:00;;;;;;;10.45;8.32;;;10.90;78.90;;;;;;5115807;28;20234;-85
2022/03/27 03:48:29;;;;;;;10.45;7.63;;;10.90;79.20;;;;;;5115755;27;20211;-85
2022/03/27 03:50:57;;;;;;;11.10;8.40;;;10.80;79.50;;;;;;5115154;28;20259;-85
2022/03/27 03:53:26;;;;;;;10.55;9.18;;;10.80;79.70;;;;;;5115746;28;20287;-85
2022/03/27 03:55:56;;;;;;;15.85;9.52;;;10.80;80.20;;;;;;5115401;28;20208;-85
2022/03/27 03:58:24;;;;;;;9.27;8.27;;;10.80;81.00;;;;;;5115648;28;20267;-85
2022/03/27 04:00:52;;;;;;;9.95;8.95;;;10.70;81.60;;;;;;5115144;28;20228;-84
2022/03/27 04:03:21;;;;;;;8.85;7.80;;;10.70;83.10;;;;;;5115402;28;20219;-84
2022/03/27 04:05:49;;;;;;;27.98;7.07;;;10.80;85.10;;;;;;5115523;28;20211;-85
2022/03/27 04:08:18;;;;;;;8.25;7.00;;;10.80;85.80;;;;;;5115182;28;20283;-85
2022/03/27 04:10:47;;;;;;;7.72;6.95;;;10.80;87.10;;;;;;5115065;28;20204;-84
2022/03/27 04:13:16;;;;;;;6.47;5.97;;;10.80;88.10;;;;;;5115157;28;20227;-85
2022/03/27 04:15:46;;;;;;;10.05;6.40;;;10.90;89.30;;;;;;5115092;28;20261;-84
2022/03/27 04:18:24;;;;;;;6.53;5.93;;;10.90;90.20;;;;;;5114687;28;20213;-84
2022/03/27 04:20:52;;;;;;;8.60;6.25;;;10.90;90.60;;;;;;5114977;28;20254;-85
2022/03/27 04:23:21;;;;;;;6.85;5.90;;;10.90;91.30;;;;;;5114791;28;20311;-85
2022/03/27 04:25:49;;;;;;;6.53;5.65;;;10.90;92.10;;;;;;5115396;28;20247;-84
2022/03/27 04:28:19;;;;;;;6.32;5.13;;;10.90;92.30;;;;;;5115211;28;20226;-84
2022/03/27 04:30:47;;;;;;;7.53;5.00;;;10.90;92.40;;;;;;5114417;28;20230;-85
2022/03/27 04:33:16;;;;;;;6.30;5.78;;;11.00;92.80;;;;;;5114863;28;20211;-84
2022/03/27 04:35:45;;;;;;;5.68;5.18;;;11.00;93.30;;;;;;5114711;28;20235;-84
2022/03/27 04:38:14;;;;;;;6.20;5.55;;;11.00;94.10;;;;;;5114746;28;20277;-85
2022/03/27 04:40:42;;;;;;;7.53;5.97;;;11.00;94.50;;;;;;5114236;28;20239;-84
2022/03/27 04:43:10;;;;;;;5.75;5.00;;;11.00;95.50;;;;;;5114823;28;20228;-84
2022/03/27 04:45:41;;;;;;;6.43;5.70;;;11.00;96.00;;;;;;5114344;28;20227;-85
2022/03/27 04:48:09;;;;;;;6.50;5.25;;;11.00;96.30;;;;;;5114796;28;20203;-85
2022/03/27 04:50:37;;;;;;;8.32;5.50;;;10.90;96.60;;;;;;5114253;28;20231;-85
2022/03/27 04:53:06;;;;;;;9.10;6.30;;;10.90;96.90;;;;;;5114289;28;20300;-85
2022/03/27 04:55:34;;;;;;;5.78;5.03;;;10.90;97.70;;;;;;5114383;28;20223;-84
2022/03/27 04:58:03;;;;;;;7.38;5.90;;;10.90;98.00;;;;;;5114424;28;20220;-85
2022/03/27 05:00:31;;;;;;;14.50;5.80;;;10.90;98.80;;;;;;5113989;28;20290;-85
2022/03/27 05:03:01;;;;;;;5.18;4.68;;;10.90;99.30;;;;;;5114368;28;20219;-84
2022/03/27 05:05:30;;;;;;;6.82;5.55;;;10.90;98.90;;;;;;5114003;28;20245;-84
2022/03/27 05:07:58;;;;;;;7.93;5.85;;;10.90;99.40;;;;;;5113951;28;20241;-84
2022/03/27 05:10:27;;;;;;;6.22;5.00;;;10.90;99.60;;;;;;5114073;28;20211;-84
2022/03/27 05:12:56;;;;;;;4.78;4.38;;;10.90;99.80;;;;;;5113969;28;20311;-84
2022/03/27 05:15:24;;;;;;;5.47;4.97;;;11.00;99.90;;;;;;5113684;27;20196;-85
2022/03/27 05:17:56;;;;;;;8.55;6.32;;;11.00;99.80;;;;;;5113973;28;20204;-84
2022/03/27 05:20:28;;;;;;;10.52;6.63;;;11.00;99.70;;;;;;5113843;28;20204;-85
2022/03/27 05:22:56;;;;;;;5.82;5.22;;;10.90;99.90;;;;;;5113753;28;20246;-85
2022/03/27 05:25:25;;;;;;;5.43;4.32;;;10.90;99.90;;;;;;5113300;28;20247;-84
2022/03/27 05:27:55;;;;;;;6.93;5.90;;;10.90;99.90;;;;;;5113672;28;20230;-85
2022/03/27 05:30:25;;;;;;;5.40;4.90;;;10.90;99.90;;;;;;5112815;28;20298;-85
2022/03/27 05:32:54;;;;;;;6.43;5.40;;;10.90;99.90;;;;;;5113416;28;20279;-85
2022/03/27 05:35:25;;;;;;;5.97;5.07;;;10.90;99.90;;;;;;5113365;28;20203;-84
2022/03/27 05:37:54;;;;;;;5.63;5.13;;;10.90;99.90;;;;;;5113401;28;20291;-85
2022/03/27 05:40:24;;;;;;;6.40;5.55;;;10.90;99.90;;;;;;5113309;28;20253;-85
2022/03/27 05:42:52;;;;;;;6.10;5.20;;;10.90;99.90;;;;;;5113354;28;20255;-85
2022/03/27 05:45:21;;;;;;;7.95;5.50;;;11.00;99.90;;;;;;5113553;28;20250;-85
2022/03/27 05:47:49;;;;;;;5.70;5.20;;;11.00;99.90;;;;;;5113797;28;20235;-86
2022/03/27 05:50:19;;;;;;;7.10;5.35;;;11.00;99.90;;;;;;5112978;28;20200;-85
2022/03/27 05:52:50;;;;;;;6.53;5.68;;;11.00;99.90;;;;;;5113261;28;20280;-85
2022/03/27 05:55:19;;;;;;;4.53;4.13;;;11.00;99.90;;;;;;5113312;28;20252;-85
2022/03/27 05:57:48;;;;;;;5.97;5.40;;;11.00;99.90;;;;;;5113510;28;20238;-85
2022/03/27 06:00:20;;;;;;;8.52;4.53;;;11.00;99.90;;;;;;5113042;28;20290;-85
2022/03/27 06:02:50;;;;;;;6.47;5.30;;;11.10;99.90;;;;;;5113075;28;20231;-86
2022/03/27 06:05:22;;;;;;;7.20;5.70;;;11.00;99.60;;;;;;5112871;27;20227;-85
2022/03/27 06:07:54;;;;;;;6.40;5.65;;;11.00;99.50;;;;;;5112911;28;20422;-85
2022/03/27 06:10:24;;;;;;;7.78;5.57;;;11.00;99.30;;;;;;5112892;28;20330;-85
2022/03/27 06:12:53;;;;;;;8.07;6.03;;;11.10;99.90;;;;;;5113094;28;20227;-85
2022/03/27 06:15:23;;;;;;;5.63;5.13;;;11.10;99.90;;;;;;5113282;28;20239;-85
2022/03/27 06:17:54;;;;;;;5.68;5.18;;;11.20;99.90;;;;;;5112965;28;20238;-85
2022/03/27 06:20:23;;;;;;;8.18;6.22;;;11.20;99.90;;;;;;5112759;28;20250;-85
2022/03/27 06:22:54;;;;;;;6.00;5.45;;;11.20;99.90;;;;;;5113105;28;20291;-86
2022/03/27 06:25:25;;;;;;;6.55;5.80;;;11.20;99.60;;;;;;5112680;28;20310;-85
2022/03/27 06:27:54;;;;;;;8.25;4.97;;;11.20;98.80;;;;;;5112829;28;20203;-85
2022/03/27 06:30:25;;;;;;;6.00;5.38;;;11.20;98.80;;;;;;5112502;28;20270;-84
2022/03/27 06:32:59;;;;;;;5.57;4.70;;;11.20;98.70;;;;;;5112382;28;20227;-85
2022/03/27 06:35:28;;;;;;;6.68;5.38;;;11.30;98.90;;;;;;5112921;28;20227;-85
2022/03/27 06:37:59;;;;;;;6.13;5.53;;;11.30;99.40;;;;;;5112713;28;20260;-86
2022/03/27 06:40:27;;;;;;;8.25;5.53;;;11.30;97.90;;;;;;5112479;28;20250;-85
2022/03/27 06:42:56;;;;;;;6.50;5.32;;;11.30;97.60;;;;;;5117025;28;20241;-85
2022/03/27 06:45:24;;;;;;;6.03;5.43;;;11.30;97.50;;;;;;5116708;28;20302;-84
2022/03/27 06:47:53;;;;;;;5.45;4.72;;;11.30;97.50;;;;;;5117105;28;20295;-85
2022/03/27 06:50:22;;;;;;;6.07;4.97;;;11.30;97.50;;;;;;5116702;28;20242;-85
2022/03/27 06:52:52;;;;;;;6.03;4.68;;;11.20;97.70;;;;;;5116907;28;20223;-85
2022/03/27 06:55:22;;;;;;;5.05;4.63;;;11.30;96.90;;;;;;5116961;28;20208;-84
2022/03/27 06:57:51;;;;;;;6.10;5.50;;;11.30;97.10;;;;;;5116654;28;20306;-84
2022/03/27 07:03:09;;;;;;;6.15;5.22;;;11.30;96.50;;;;;;5117549;28;20208;-85
2022/03/27 07:05:40;;;;;;;6.53;5.90;;;11.30;96.10;;;;;;5116828;28;20223;-84
2022/03/27 07:08:10;;;;;;;7.15;5.75;;;11.40;96.10;;;;;;5116799;28;20202;-85
2022/03/27 07:10:43;;;;;;;5.80;5.10;;;11.40;96.10;;;;;;5116568;28;20238;-85
2022/03/27 07:13:13;;;;;;;5.20;4.78;;;11.50;95.50;;;;;;5116345;28;20235;-84
2022/03/27 07:15:43;;;;;;;5.28;4.82;;;11.50;95.10;;;;;;5116488;28;20242;-84
2022/03/27 07:18:12;;;;;;;4.95;4.45;;;11.50;94.90;;;;;;5116340;28;20230;-85
2022/03/27 07:20:42;;;;;;;5.15;4.75;;;11.60;94.80;;;;;;5116313;28;20231;-85
2022/03/27 07:23:12;;;;;;;5.88;5.30;;;11.70;94.90;;;;;;5116817;28;20199;-84
2022/03/27 07:25:44;;;;;;;6.43;5.63;;;11.70;94.70;;;;;;5116441;28;20272;-84
2022/03/27 07:28:13;;;;;;;5.38;4.88;;;11.80;94.70;;;;;;5116476;28;20227;-84
2022/03/27 07:30:42;;;;;;;9.10;5.70;;;11.90;94.40;;;;;;5115492;28;20272;-86
2022/03/27 07:33:11;;;;;;;8.27;5.70;;;12.00;93.90;;;;;;5115658;28;20229;-84
2022/03/27 07:35:40;;;;;;;7.15;6.13;;;12.00;94.00;;;;;;5116113;28;20226;-84
2022/03/27 07:38:08;;;;;;;5.88;5.32;;;12.00;93.60;;;;;;5116182;28;20235;-85
2022/03/27 07:40:38;;;;;;;5.25;4.75;;;12.00;93.30;;;;;;5115909;28;20228;-85
2022/03/27 07:43:08;;;;;;;5.40;4.95;;;12.10;93.10;;;;;;5115814;28;20222;-85
2022/03/27 07:45:36;;;;;;;6.38;5.78;;;12.10;92.90;;;;;;5115721;27;20250;-84
2022/03/27 07:48:06;;;;;;;7.38;5.22;;;12.20;93.10;;;;;;5115735;28;20238;-84
2022/03/27 07:50:34;;;;;;;6.45;5.60;;;12.30;92.80;;;;;;5115591;28;20227;-84
2022/03/27 07:53:04;;;;;;;6.80;5.30;;;12.40;92.20;;;;;;5115019;28;20231;-85
2022/03/27 07:55:33;;;;;;;6.00;5.40;;;12.50;92.00;;;;;;5115717;28;20214;-84
2022/03/27 07:58:02;;;;;;;8.90;6.32;;;12.60;92.10;;;;;;5115730;27;20239;-84
2022/03/27 08:00:32;;;;;;;10.80;5.55;;;12.60;92.00;;;;;;5115161;28;20199;-83
2022/03/27 08:03:01;;;;;;;6.00;5.30;;;12.60;91.60;;;;;;5115938;28;20265;-85
2022/03/27 08:05:29;;;;;;;5.88;4.45;;;12.70;91.60;;;;;;5115598;28;20211;-85
2022/03/27 08:07:58;;;;;;;13.32;5.40;;;12.70;91.50;;;;;;5115716;28;20216;-85
2022/03/27 08:10:26;;;;;;;5.10;4.70;;;12.70;91.70;;;;;;5114963;28;20250;-85
2022/03/27 08:12:54;;;;;;;8.05;5.25;;;12.80;91.60;;;;;;5115041;27;20258;-85
2022/03/27 08:15:23;;;;;;;5.95;5.45;;;12.90;91.50;;;;;;5115451;28;20299;-85
2022/03/27 08:17:53;;;;;;;5.50;5.00;;;13.00;91.20;;;;;;5115445;28;20233;-85
2022/03/27 08:20:25;;;;;;;5.63;5.10;;;13.20;91.00;;;;;;5115199;28;20219;-85
2022/03/27 08:22:54;;;;;;;6.93;6.28;;;13.40;90.40;;;;;;5115137;28;20231;-85
2022/03/27 08:28:09;;;;;;;6.25;5.70;;;13.40;90.00;;;;;;5114991;28;20253;-86
2022/03/27 08:30:38;;;;;;;7.82;5.55;;;13.30;90.70;;;;;;5114584;28;20200;-86
2022/03/27 08:33:08;;;;;;;6.75;5.38;;;13.40;89.70;;;;;;5115138;28;20212;-85
2022/03/27 08:35:38;;;;;;;6.35;5.75;;;13.40;90.50;;;;;;5114999;28;20203;-85
2022/03/27 08:38:07;;;;;;;5.30;4.85;;;13.40;90.20;;;;;;5114967;28;20231;-85
2022/03/27 08:40:36;;;;;;;7.13;5.90;;;13.40;89.50;;;;;;5114419;28;20268;-85
2022/03/27 08:43:06;;;;;;;24.77;6.13;;;13.50;90.00;;;;;;5114547;28;20243;-85
2022/03/27 08:45:34;;;;;;;5.88;5.32;;;13.60;90.60;;;;;;5114433;28;20239;-85
2022/03/27 08:48:02;;;;;;;5.75;5.22;;;13.70;89.40;;;;;;5114647;28;20228;-85
2022/03/27 08:50:38;;;;;;;6.18;5.57;;;13.80;89.20;;;;;;5114165;28;20234;-85
2022/03/27 08:53:11;;;;;;;5.10;4.60;;;13.90;88.30;;;;;;5114642;28;20286;-84
2022/03/27 08:55:46;;;;;;;5.15;4.70;;;14.00;89.10;;;;;;5114350;28;20321;-86
2022/03/27 08:58:15;;;;;;;6.00;5.20;;;14.20;88.90;;;;;;5114545;28;20227;-85
2022/03/27 09:00:44;;;;;;;6.32;5.57;;;14.40;86.60;;;;;;5113640;28;20299;-85
2022/03/27 09:03:13;;;;;;;7.15;5.53;;;14.70;86.50;;;;;;5114239;28;20208;-86
2022/03/27 09:05:43;;;;;;;5.40;4.97;;;14.90;83.90;;;;;;5113347;28;20299;-85
2022/03/27 09:08:12;;;;;;;5.97;5.40;;;14.90;84.10;;;;;;5114029;28;20208;-85
2022/03/27 09:10:41;;;;;;;6.13;5.53;;;15.20;85.70;;;;;;5113677;27;20231;-85
2022/03/27 09:13:13;;;;;;;6.20;5.60;;;15.50;84.00;;;;;;5114048;28;20215;-85
2022/03/27 09:15:44;;;;;;;6.00;5.43;;;15.70;81.00;;;;;;5114084;28;20246;-85
2022/03/27 09:18:13;;;;;;;6.13;5.55;;;15.60;80.40;;;;;;5114085;27;20259;-85
2022/03/27 09:20:46;;;;;;;6.97;5.95;;;15.60;79.70;;;;;;5113576;28;20211;-85
2022/03/27 09:23:21;;;;;;;6.05;5.55;;;15.30;79.00;;;;;;5113903;28;20286;-86
2022/03/27 09:25:54;;;;;;;6.07;5.47;;;15.20;80.10;;;;;;5113749;28;20260;-84
2022/03/27 09:28:31;;;;;;;6.63;5.38;;;15.10;80.70;;;;;;5113896;28;20287;-84
2022/03/27 09:31:01;;;;;;;6.18;5.20;;;14.90;80.50;;;;;;5113467;28;20235;-84
2022/03/27 09:33:47;;;;;;;6.53;6.03;;;15.00;80.90;;;;;;5113741;28;20261;-84
2022/03/27 09:36:20;;;;;;;7.72;5.97;;;15.30;80.10;;;;;;5113580;28;20224;-84
2022/03/27 09:39:06;;;;;;;7.75;6.68;;;15.70;78.70;;;;;;5113562;28;20211;-84
2022/03/27 09:41:42;;;;;;;6.95;6.25;;;15.90;76.70;;;;;;5113473;28;20266;-84
2022/03/27 09:44:12;;;;;;;7.32;5.88;;;16.00;77.20;;;;;;5113625;28;20207;-85
2022/03/27 09:46:55;;;;;;;8.55;6.88;;;16.00;76.80;;;;;;5113399;28;20314;-85
2022/03/27 09:49:26;;;;;;;8.80;6.13;;;16.10;77.00;;;;;;5113404;28;20274;-85
2022/03/27 09:52:01;;;;;;;7.85;6.65;;;16.20;77.10;;;;;;5113216;28;20224;-84
2022/03/27 09:54:44;;;;;;;9.05;5.82;;;16.50;77.40;;;;;;5113470;28;20223;-85
2022/03/27 09:57:18;;;;;;;7.22;6.18;;;16.80;75.30;;;;;;5113214;28;20230;-86
2022/03/27 09:59:46;;;;;;;6.68;6.07;;;17.30;74.10;;;;;;5113122;28;20230;-85
2022/03/27 10:02:24;;;;;;;7.00;5.97;;;17.60;73.70;;;;;;5112891;28;20259;-84
2022/03/27 10:05:01;;;;;;;6.72;6.07;;;17.90;72.30;;;;;;5113354;28;20196;-84
2022/03/27 10:07:40;;;;;;;11.48;5.93;;;18.30;69.70;;;;;;5112635;28;20258;-85
2022/03/27 10:10:11;;;;;;;6.93;6.30;;;18.60;69.20;;;;;;5113255;28;20207;-84
2022/03/27 10:12:42;;;;;;;7.95;6.93;;;18.60;68.70;;;;;;5112697;28;20231;-84
2022/03/27 10:15:13;;;;;;;6.32;5.80;;;18.70;69.50;;;;;;5112847;28;20200;-84
2022/03/27 10:17:43;;;;;;;6.72;6.15;;;19.20;69.70;;;;;;5112697;28;20196;-84
2022/03/27 10:20:13;;;;;;;6.50;5.88;;;20.10;68.40;;;;;;5113491;28;20218;-84
2022/03/27 10:22:45;;;;;;;7.50;6.72;;;20.80;66.10;;;;;;5112944;28;20311;-83
2022/03/27 10:25:15;;;;;;;7.45;6.60;;;21.50;61.50;;;;;;5112563;28;20275;-84
2022/03/27 10:27:47;;;;;;;7.28;6.15;;;21.80;61.50;;;;;;5112350;28;20226;-84
2022/03/27 10:30:16;;;;;;;10.45;6.53;;;22.20;61.00;;;;;;5112725;28;20208;-84
2022/03/27 10:32:45;;;;;;;10.40;6.20;;;22.40;58.80;;;;;;5112778;28;20220;-84
2022/03/27 10:35:32;;;;;;;7.28;6.68;;;22.60;58.90;;;;;;5112874;28;20229;-83
2022/03/27 10:38:19;;;;;;;6.28;5.68;;;23.00;57.40;;;;;;5112966;28;20238;-83
2022/03/27 10:40:56;;;;;;;7.25;6.32;;;23.20;57.50;;;;;;5112393;28;20223;-83
2022/03/27 10:43:32;;;;;;;6.82;6.22;;;23.50;57.40;;;;;;5112517;28;20238;-84
2022/03/27 10:46:19;;;;;;;6.95;6.43;;;23.80;55.30;;;;;;5112685;28;20234;-84
2022/03/27 10:48:49;;;;;;;6.95;6.30;;;23.70;54.20;;;;;;5112478;28;20219;-84
2022/03/27 10:51:38;;;;;;;6.05;5.53;;;23.80;55.00;;;;;;5112370;28;20312;-84
2022/03/27 10:54:11;;;;;;;6.70;6.07;;;23.80;53.20;;;;;;5112673;28;20290;-84
2022/03/27 10:56:43;;;;;;;7.07;6.20;;;23.90;54.40;;;;;;5112565;28;20200;-83
2022/03/27 10:59:17;;;;;;;6.55;5.80;;;24.00;53.80;;;;;;5113037;28;20294;-84
2022/03/27 11:01:47;;;;;;;5.93;5.43;;;24.30;53.50;;;;;;5112305;28;20437;-84
2022/03/27 11:04:18;;;;;;;6.05;5.55;;;24.70;52.80;;;;;;5113100;28;20210;-83
2022/03/27 11:06:47;;;;;;;6.40;5.85;;;25.20;51.70;;;;;;5113233;28;20212;-83
2022/03/27 11:09:33;;;;;;;5.35;4.85;;;25.10;51.60;;;;;;5112577;28;20227;-84
2022/03/27 11:12:02;;;;;;;6.03;5.43;;;24.90;52.40;;;;;;5112100;28;20246;-84
2022/03/27 11:14:55;;;;;;;5.63;5.18;;;25.10;52.30;;;;;;5112302;28;20288;-85
2022/03/27 11:17:48;;;;;;;5.35;4.95;;;25.60;50.70;;;;;;5112237;28;20247;-84
2022/03/27 11:20:53;;;;;;;9.68;5.78;;;25.50;50.70;;;;;;5112048;28;20231;-84
2022/03/27 11:23:30;;;;;;;5.43;4.93;;;25.50;50.80;;;;;;5112510;28;20207;-83
2022/03/27 11:26:02;;;;;;;5.43;4.93;;;25.50;51.10;;;;;;5113505;28;20242;-83
2022/03/27 11:28:48;;;;;;;4.75;4.22;;;25.60;50.50;;;;;;5114048;28;20212;-83
2022/03/27 11:31:29;;;;;;;7.78;4.95;;;25.90;49.90;;;;;;5116033;27;20338;-84
2022/03/27 11:34:20;;;;;;;3.97;3.67;;;25.80;49.90;;;;;;5116317;28;20208;-83
2022/03/27 11:37:05;;;;;;;4.70;4.30;;;25.90;50.10;;;;;;5116074;27;20334;-83
2022/03/27 11:39:35;;;;;;;4.63;4.05;;;25.70;49.70;;;;;;5116070;28;20253;-83
2022/03/27 11:42:34;;;;;;;4.85;4.45;;;25.60;50.30;;;;;;5115623;28;20220;-83
2022/03/27 11:45:24;;;;;;;4.47;4.07;;;25.60;49.90;;;;;;5115930;28;20273;-84
2022/03/27 11:47:54;;;;;;;5.22;4.72;;;25.40;50.40;;;;;;5116035;28;20223;-84
2022/03/27 11:50:34;;;;;;;4.97;4.57;;;25.50;50.10;;;;;;5115755;28;20291;-84
2022/03/27 11:53:04;;;;;;;5.32;4.72;;;25.50;49.90;;;;;;5115629;27;20249;-85
2022/03/27 11:55:33;;;;;;;4.53;4.13;;;25.50;49.80;;;;;;5115929;28;20225;-84
2022/03/27 11:58:07;;;;;;;5.43;4.93;;;25.50;49.90;;;;;;5115983;28;20299;-83
2022/03/27 12:00:39;;;;;;;4.88;4.40;;;25.60;49.70;;;;;;5115471;28;20207;-84
2022/03/27 12:03:15;;;;;;;5.40;4.90;;;25.80;48.70;;;;;;5115444;28;20208;-83
2022/03/27 12:05:44;;;;;;;4.15;3.85;;;25.80;49.00;;;;;;5115633;28;20207;-83
2022/03/27 12:08:17;;;;;;;5.10;4.55;;;25.70;49.60;;;;;;5115200;28;20223;-83
2022/03/27 12:10:49;;;;;;;5.18;4.68;;;25.60;49.10;;;;;;5115304;28;20203;-83
2022/03/27 12:13:19;;;;;;;5.32;4.80;;;25.40;49.60;;;;;;5115309;28;20274;-84
2022/03/27 12:15:50;;;;;;;7.22;4.78;;;25.20;49.80;;;;;;5115606;28;20231;-84
2022/03/27 12:18:29;;;;;;;4.88;4.43;;;25.60;48.60;;;;;;5115014;28;20226;-83
2022/03/27 12:20:59;;;;;;;5.80;4.43;;;26.20;47.70;;;;;;5115235;28;20281;-84
2022/03/27 12:23:29;;;;;;;5.65;4.35;;;26.30;47.70;;;;;;5115310;28;20250;-83
2022/03/27 12:31:54;;;;;;;4.35;3.33;;;25.80;48.50;;;;;;5114660;28;20247;-84
2022/03/27 12:34:24;;;;;;;8.98;4.40;;;25.70;48.50;;;;;;5114953;28;20208;-84
2022/03/27 12:37:09;;;;;;;4.53;4.13;;;25.80;48.40;;;;;;5115132;28;20200;-84
2022/03/27 12:39:39;;;;;;;4.38;4.07;;;26.10;47.30;;;;;;5114565;28;20233;-84
2022/03/27 12:42:08;;;;;;;3.78;3.45;;;25.80;47.40;;;;;;5114174;28;20228;-84
2022/03/27 12:44:50;;;;;;;3.47;3.28;;;25.50;48.20;;;;;;5114643;28;20207;-84
2022/03/27 12:47:19;;;;;;;4.13;3.80;;;25.60;48.10;;;;;;5114636;27;20296;-83
2022/03/27 12:49:49;;;;;;;3.53;3.22;;;25.80;48.50;;;;;;5114377;28;20223;-84
2022/03/27 12:52:17;;;;;;;4.00;3.60;;;25.80;48.30;;;;;;5114673;27;20310;-84
2022/03/27 12:54:56;;;;;;;3.30;3.10;;;25.70;47.90;;;;;;5114576;28;20231;-84
2022/03/27 12:57:25;;;;;;;3.42;3.15;;;25.50;48.00;;;;;;5114463;28;20211;-84
2022/03/27 12:59:55;;;;;;;3.28;3.08;;;25.30;49.00;;;;;;5114358;28;20291;-84
2022/03/27 13:02:25;;;;;;;3.95;3.45;;;25.20;48.90;;;;;;5113967;28;20307;-84
2022/03/27 13:05:01;;;;;;;2.95;2.75;;;25.20;49.40;;;;;;5114588;27;20290;-84
2022/03/27 13:07:54;;;;;;;3.05;2.85;;;25.10;48.80;;;;;;5114059;28;20223;-84
2022/03/27 13:10:23;;;;;;;3.42;3.13;;;24.90;49.80;;;;;;5114232;28;20299;-84
2022/03/27 13:13:05;;;;;;;3.28;2.97;;;24.70;48.60;;;;;;5113926;28;20259;-83
2022/03/27 13:15:43;;;;;;;3.30;3.10;;;24.40;49.40;;;;;;5114199;28;20223;-84
2022/03/27 13:18:16;;;;;;;3.47;3.25;;;24.30;50.20;;;;;;5114058;28;20204;-84